createdAt,value
2018-08-12T00:00:18.894Z,0.4
2018-08-12T00:02:17.668Z,0.2
2018-08-12T00:04:19.441Z,0.2
2018-08-12T00:06:18.028Z,0.3
2018-08-12T00:08:17.828Z,0.4
2018-08-12T00:10:18.017Z,0.3
2018-08-12T00:12:18.782Z,0.3
2018-08-12T00:14:17.551Z,0.4
2018-08-12T00:16:18.060Z,0.1
2018-08-12T00:18:18.920Z,0.1
2018-08-12T00:20:17.719Z,0.2
2018-08-12T00:22:19.495Z,0.1
2018-08-12T00:24:18.255Z,0.2
2018-08-12T00:26:18.812Z,0.3
2018-08-12T00:28:17.590Z,0.2
2018-08-12T00:30:18.371Z,0.1
2018-08-12T00:32:18.120Z,0.4
2018-08-12T00:34:17.891Z,0.2
2018-08-12T00:36:18.066Z,0.2
2018-08-12T00:38:18.859Z,0.2
2018-08-12T00:40:19.183Z,0.2
2018-08-12T00:42:17.592Z,0.3
2018-08-12T00:44:18.334Z,0.1
2018-08-12T00:46:18.864Z,0.2
2018-08-12T00:48:18.659Z,0.2
2018-08-12T00:50:18.541Z,0.1
2018-08-12T00:52:18.293Z,0.1
2018-08-12T00:54:19.059Z,0.5
2018-08-12T00:56:18.149Z,0.1
2018-08-12T00:58:18.932Z,0.2
2018-08-12T01:00:18.702Z,0.2
2018-08-12T01:02:19.475Z,0.2
2018-08-12T01:04:19.261Z,0.2
2018-08-12T01:06:19.315Z,0.2
2018-08-12T01:08:18.073Z,0.2
2018-08-12T01:10:19.466Z,0.2
2018-08-12T01:12:18.240Z,0.2
2018-08-12T01:14:19.054Z,0.3
2018-08-12T01:16:17.574Z,0.2
2018-08-12T01:18:18.451Z,0.2
2018-08-12T01:20:19.274Z,0.2
2018-08-12T01:22:18.051Z,0.1
2018-08-12T01:24:17.818Z,0.1
2018-08-12T01:26:18.835Z,0.3
2018-08-12T01:28:18.661Z,0.1
2018-08-12T01:30:18.628Z,0.5
2018-08-12T01:32:19.393Z,0.2
2018-08-12T01:34:19.178Z,0.2
2018-08-12T01:36:17.899Z,0.2
2018-08-12T01:38:17.686Z,0.2
2018-08-12T01:40:17.928Z,0.3
2018-08-12T01:42:18.694Z,0.3
2018-08-12T01:44:19.458Z,0.3
2018-08-12T01:46:18.090Z,0.4
2018-08-12T01:48:17.852Z,0.3
2018-08-12T01:50:18.664Z,0.2
2018-08-12T01:52:19.452Z,0.4
2018-08-12T01:54:19.245Z,0.2
2018-08-12T01:56:19.320Z,0.2
2018-08-12T01:58:18.079Z,0.3
2018-08-12T02:00:18.844Z,0.2
2018-08-12T02:02:17.638Z,0.4
2018-08-12T02:04:18.388Z,0.3
2018-08-12T02:06:18.968Z,0.2
2018-08-12T02:08:18.749Z,0.2
2018-08-12T02:10:19.021Z,0.4
2018-08-12T02:12:17.768Z,0.3
2018-08-12T02:14:18.547Z,0.2
2018-08-12T02:16:19.080Z,0.3
2018-08-12T02:18:18.922Z,0.3
2018-08-12T02:20:17.717Z,0.3
2018-08-12T02:22:19.480Z,0.4
2018-08-12T02:24:19.245Z,0.3
2018-08-12T02:26:18.715Z,0.3
2018-08-12T02:28:19.476Z,0.7
2018-08-12T02:30:19.268Z,0.3
2018-08-12T02:32:19.064Z,0.1
2018-08-12T02:34:18.835Z,0.3
2018-08-12T02:36:19.393Z,0.2
2018-08-12T02:38:19.171Z,0.1
2018-08-12T02:40:19.489Z,0.2
2018-08-12T02:42:18.247Z,0.3
2018-08-12T02:44:18.031Z,0.1
2018-08-12T02:46:19.510Z,0.2
2018-08-12T02:48:19.296Z,0.2
2018-08-12T02:50:19.093Z,0.7
2018-08-12T02:52:18.847Z,0.5
2018-08-12T02:54:18.620Z,0.2
2018-08-12T02:56:18.697Z,0.2
2018-08-12T02:58:19.499Z,0.4
2018-08-12T03:00:19.267Z,0.2
2018-08-12T03:02:19.058Z,0.3
2018-08-12T03:04:18.825Z,0.3
2018-08-12T03:06:19.387Z,0.2
2018-08-12T03:08:19.175Z,0.2
2018-08-12T03:10:19.436Z,0.3
2018-08-12T03:12:19.232Z,0.3
2018-08-12T03:14:18.971Z,0.5
2018-08-12T03:16:18.622Z,0.2
2018-08-12T03:18:18.546Z,0.3
2018-08-12T03:20:19.327Z,0.1
2018-08-12T03:22:19.144Z,0.2
2018-08-12T03:24:18.995Z,0.4
2018-08-12T03:26:19.106Z,0.2
2018-08-12T03:28:18.899Z,0.4
2018-08-12T03:30:18.777Z,0.3
2018-08-12T03:32:18.864Z,0.4
2018-08-12T03:34:18.699Z,0.3
2018-08-12T03:36:19.031Z,0.4
2018-08-12T03:38:18.780Z,0.2
2018-08-12T03:40:19.034Z,0.1
2018-08-12T03:42:18.826Z,0.3
2018-08-12T03:44:18.628Z,0.3
2018-08-12T03:46:18.708Z,0.3
2018-08-12T03:48:19.457Z,0.5
2018-08-12T03:50:19.247Z,0.3
2018-08-12T03:52:18.987Z,0.2
2018-08-12T03:54:18.780Z,0.6
2018-08-12T03:56:18.897Z,0.2
2018-08-12T03:58:18.640Z,0.6
2018-08-12T04:00:19.503Z,0.2
2018-08-12T04:02:19.342Z,0.3
2018-08-12T04:04:19.263Z,0.2
2018-08-12T04:06:18.830Z,0.5
2018-08-12T04:08:18.635Z,0.3
2018-08-12T04:10:18.884Z,1.4
2018-08-12T04:12:18.636Z,0.3
2018-08-12T04:14:19.405Z,0.5
2018-08-12T04:16:18.962Z,0.2
2018-08-12T04:18:18.795Z,0.2
2018-08-12T04:20:18.568Z,0.3
2018-08-12T04:22:19.342Z,0.3
2018-08-12T04:24:19.072Z,0.4
2018-08-12T04:26:18.600Z,0.5
2018-08-12T04:28:19.367Z,0.4
2018-08-12T04:30:19.243Z,0.4
2018-08-12T04:32:19.022Z,0.3
2018-08-12T04:34:18.825Z,0.2
2018-08-12T04:36:19.360Z,0.4
2018-08-12T04:38:19.145Z,0.3
2018-08-12T04:40:19.454Z,0.3
2018-08-12T04:42:19.196Z,0.2
2018-08-12T04:44:18.988Z,0.5
2018-08-12T04:46:18.560Z,0.4
2018-08-12T04:48:19.352Z,0.3
2018-08-12T04:50:19.114Z,0.2
2018-08-12T04:52:18.847Z,0.5
2018-08-12T04:54:18.595Z,0.8
2018-08-12T04:56:18.755Z,0.1
2018-08-12T04:58:18.565Z,0.4
2018-08-12T05:00:19.384Z,0.5
2018-08-12T05:02:19.132Z,0.2
2018-08-12T05:04:18.917Z,0.2
2018-08-12T05:06:19.474Z,0.3
2018-08-12T05:08:19.282Z,0.2
2018-08-12T05:10:18.545Z,0.1
2018-08-12T05:12:19.335Z,0.3
2018-08-12T05:14:19.090Z,0.2
2018-08-12T05:16:19.172Z,0.4
2018-08-12T05:18:19.060Z,0.3
2018-08-12T05:20:18.833Z,0.2
2018-08-12T05:22:18.609Z,0.4
2018-08-12T05:24:19.402Z,0.7
2018-08-12T05:26:19.014Z,0.3
2018-08-12T05:28:18.780Z,0.2
2018-08-12T05:30:18.589Z,0.3
2018-08-12T05:32:19.362Z,0.3
2018-08-12T05:34:19.135Z,0.3
2018-08-12T05:36:19.185Z,0.3
2018-08-12T05:38:18.976Z,0.2
2018-08-12T05:40:19.235Z,0.6
2018-08-12T05:42:19.030Z,0.2
2018-08-12T05:44:18.819Z,0.4
2018-08-12T05:46:19.337Z,0.4
2018-08-12T05:48:19.135Z,0.2
2018-08-12T05:50:18.946Z,0.3
2018-08-12T05:52:18.728Z,0.3
2018-08-12T05:54:19.493Z,0.2
2018-08-12T05:56:17.567Z,0.2
2018-08-12T05:58:19.350Z,0.3
2018-08-12T06:00:18.126Z,0.2
2018-08-12T06:02:18.930Z,0.3
2018-08-12T06:04:18.738Z,0.4
2018-08-12T06:06:19.258Z,0.2
2018-08-12T06:08:19.018Z,0.4
2018-08-12T06:10:18.238Z,0.3
2018-08-12T06:12:19.002Z,0.2
2018-08-12T06:14:18.771Z,0.2
2018-08-12T06:16:19.348Z,0.3
2018-08-12T06:18:19.213Z,0.5
2018-08-12T06:20:19.017Z,0.4
2018-08-12T06:22:18.823Z,0.5
2018-08-12T06:24:17.572Z,0.7
2018-08-12T06:26:18.734Z,0.5
2018-08-12T06:28:18.543Z,0.2
2018-08-12T06:30:19.386Z,0.4
2018-08-12T06:32:19.148Z,0.3
2018-08-12T06:34:18.938Z,0.2
2018-08-12T06:36:18.059Z,0.5
2018-08-12T06:38:18.852Z,0.3
2018-08-12T06:40:19.105Z,0.1
2018-08-12T06:42:17.892Z,0.2
2018-08-12T06:44:18.654Z,0.4
2018-08-12T06:46:19.261Z,0.4
2018-08-12T06:48:19.076Z,0.3
2018-08-12T06:50:17.901Z,0.6
2018-08-12T06:52:17.688Z,0.2
2018-08-12T06:54:18.493Z,0.4
2018-08-12T06:56:19.044Z,0.2
2018-08-12T06:58:18.821Z,0.6
2018-08-12T07:00:18.676Z,0.4
2018-08-12T07:02:19.512Z,0.2
2018-08-12T07:04:19.264Z,0.5
2018-08-12T07:06:18.760Z,0.4
2018-08-12T07:08:18.565Z,0.5
2018-08-12T07:10:18.933Z,0.3
2018-08-12T07:12:18.702Z,0.3
2018-08-12T07:14:19.514Z,0.2
2018-08-12T07:16:18.205Z,0.1
2018-08-12T07:18:19.068Z,0.2
2018-08-12T07:20:18.861Z,0.3
2018-08-12T07:22:18.655Z,0.2
2018-08-12T07:24:18.418Z,0.5
2018-08-12T07:26:17.959Z,0.2
2018-08-12T07:28:18.731Z,1.2
2018-08-12T07:30:18.500Z,0.3
2018-08-12T07:32:18.281Z,0.1
2018-08-12T07:34:18.036Z,0.5
2018-08-12T07:36:18.312Z,0.4
2018-08-12T07:38:18.103Z,0.4
2018-08-12T07:40:18.375Z,0.6
2018-08-12T07:42:18.196Z,0.3
2018-08-12T07:44:17.994Z,0.4
2018-08-12T07:46:17.535Z,0.3
2018-08-12T07:48:18.339Z,0.1
2018-08-12T07:50:18.109Z,0.1
2018-08-12T07:52:17.902Z,0.4
2018-08-12T07:54:17.708Z,0.4
2018-08-12T07:56:18.341Z,0.3
2018-08-12T07:58:18.152Z,0.2
2018-08-12T08:00:17.937Z,0.4
2018-08-12T08:02:17.713Z,0.4
2018-08-12T08:04:18.472Z,0.2
2018-08-12T08:06:18.035Z,0.2
2018-08-12T08:08:17.905Z,0.2
2018-08-12T08:10:18.149Z,0.1
2018-08-12T08:12:17.954Z,0.3
2018-08-12T08:14:17.757Z,0.4
2018-08-12T08:16:18.263Z,0.2
2018-08-12T08:18:18.139Z,0.5
2018-08-12T08:20:17.941Z,0.5
2018-08-12T08:22:17.732Z,0.2
2018-08-12T08:24:18.559Z,0.4
2018-08-12T08:26:18.100Z,0.3
2018-08-12T08:28:17.879Z,0.4
2018-08-12T08:30:17.673Z,0.2
2018-08-12T08:32:18.576Z,0.4
2018-08-12T08:34:18.516Z,0.5
2018-08-12T08:36:17.586Z,0.3
2018-08-12T08:38:18.363Z,0.3
2018-08-12T08:40:17.658Z,0.2
2018-08-12T08:42:18.523Z,0.3
2018-08-12T08:44:18.303Z,0.3
2018-08-12T08:46:17.824Z,0.3
2018-08-12T08:48:17.634Z,0.7
2018-08-12T08:50:18.527Z,0.6
2018-08-12T08:52:18.289Z,0.2
2018-08-12T08:54:18.128Z,0.3
2018-08-12T08:56:18.201Z,0.2
2018-08-12T08:58:17.999Z,0.5
2018-08-12T09:00:17.828Z,0.6
2018-08-12T09:02:17.614Z,0.3
2018-08-12T09:04:18.411Z,0.2
2018-08-12T09:06:17.994Z,0.3
2018-08-12T09:08:17.960Z,0.5
2018-08-12T09:10:18.546Z,0.6
2018-08-12T09:12:18.326Z,0.4
2018-08-12T09:14:18.104Z,0.3
2018-08-12T09:16:17.691Z,0.3
2018-08-12T09:18:17.661Z,0.4
2018-08-12T09:20:17.687Z,0.4
2018-08-12T09:22:18.488Z,0.6
2018-08-12T09:24:18.250Z,0.5
2018-08-12T09:26:17.773Z,0.4
2018-08-12T09:28:17.552Z,0.4
2018-08-12T09:30:18.350Z,0.5
2018-08-12T09:32:18.169Z,0.6
2018-08-12T09:34:17.993Z,0.3
2018-08-12T09:36:18.498Z,0.5
2018-08-12T09:38:18.314Z,0.3
2018-08-12T09:40:17.629Z,0.5
2018-08-12T09:42:18.388Z,0.5
2018-08-12T09:44:18.197Z,0.4
2018-08-12T09:46:17.717Z,0.5
2018-08-12T09:48:18.511Z,0.4
2018-08-12T09:50:18.302Z,0.3
2018-08-12T09:52:18.081Z,0.4
2018-08-12T09:54:17.868Z,0.2
2018-08-12T09:56:17.955Z,0.7
2018-08-12T09:58:17.712Z,0.4
2018-08-12T10:00:18.558Z,0.7
2018-08-12T10:02:18.549Z,0.3
2018-08-12T10:04:18.339Z,0.4
2018-08-12T10:06:18.420Z,0.3
2018-08-12T10:08:18.216Z,0.3
2018-08-12T10:10:18.613Z,0.3
2018-08-12T10:12:18.391Z,0.3
2018-08-12T10:14:18.190Z,0.4
2018-08-12T10:16:18.208Z,0.4
2018-08-12T10:18:18.078Z,0.2
2018-08-12T10:20:17.890Z,0.5
2018-08-12T10:22:17.697Z,0.3
2018-08-12T10:24:18.467Z,0.4
2018-08-12T10:26:17.627Z,0.2
2018-08-12T10:28:18.455Z,0.3
2018-08-12T10:30:18.245Z,0.4
2018-08-12T10:32:18.057Z,0.1
2018-08-12T10:34:17.844Z,0.3
2018-08-12T10:36:18.347Z,0.5
2018-08-12T10:38:18.143Z,0.2
2018-08-12T10:40:18.422Z,0.2
2018-08-12T10:42:18.250Z,0.3
2018-08-12T10:44:18.124Z,0.6
2018-08-12T10:46:17.734Z,0.4
2018-08-12T10:48:18.514Z,0.3
2018-08-12T10:50:18.284Z,0.4
2018-08-12T10:52:18.056Z,0.5
2018-08-12T10:54:17.868Z,0.3
2018-08-12T10:56:17.997Z,0.3
2018-08-12T10:58:17.780Z,0.4
2018-08-12T11:00:17.599Z,0.4
2018-08-12T11:02:18.393Z,0.4
2018-08-12T11:04:18.200Z,0.4
2018-08-12T11:06:18.352Z,0.2
2018-08-12T11:08:18.148Z,0.3
2018-08-12T11:10:18.432Z,0.5
2018-08-12T11:12:18.281Z,0.3
2018-08-12T11:14:18.079Z,0.4
2018-08-12T11:16:18.191Z,0.1
2018-08-12T11:18:18.092Z,0.3
2018-08-12T11:20:17.943Z,0.5
2018-08-12T11:22:17.737Z,0.4
2018-08-12T11:24:18.558Z,0.4
2018-08-12T11:26:17.726Z,0.2
2018-08-12T11:28:18.518Z,0.2
2018-08-12T11:30:18.304Z,0.3
2018-08-12T11:32:18.108Z,0.5
2018-08-12T11:34:17.906Z,0.3
2018-08-12T11:36:18.478Z,0.5
2018-08-12T11:38:18.259Z,0.2
2018-08-12T11:40:18.572Z,0.2
2018-08-12T11:42:18.386Z,0.3
2018-08-12T11:44:18.167Z,0.3
2018-08-12T11:46:17.685Z,0.7
2018-08-12T11:48:18.521Z,0.3
2018-08-12T11:50:18.333Z,0.2
2018-08-12T11:52:18.127Z,0.2
2018-08-12T11:54:17.964Z,0.2
2018-08-12T11:56:18.537Z,0.2
2018-08-12T11:58:18.319Z,0.2
2018-08-12T12:00:18.116Z,0.2
2018-08-12T12:02:17.983Z,0.2
2018-08-12T12:04:18.069Z,0.4
2018-08-12T12:06:18.002Z,0.4
2018-08-12T12:08:17.803Z,0.4
2018-08-12T12:10:18.073Z,0.2
2018-08-12T12:12:17.917Z,0.3
2018-08-12T12:14:17.728Z,0.4
2018-08-12T12:16:18.395Z,0.2
2018-08-12T12:18:18.288Z,0.4
2018-08-12T12:20:18.104Z,0.2
2018-08-12T12:22:17.900Z,0.3
2018-08-12T12:24:17.758Z,0.4
2018-08-12T12:26:18.381Z,0.4
2018-08-12T12:28:18.218Z,0.3
2018-08-12T12:30:18.017Z,0.3
2018-08-12T12:32:17.793Z,0.4
2018-08-12T12:34:17.587Z,0.4
2018-08-12T12:36:17.691Z,0.3
2018-08-12T12:38:18.507Z,0.2
2018-08-12T12:40:17.869Z,0.3
2018-08-12T12:42:17.670Z,0.3
2018-08-12T12:44:18.506Z,0.5
2018-08-12T12:46:17.668Z,0.4
2018-08-12T12:48:18.449Z,0.5
2018-08-12T12:50:18.389Z,0.5
2018-08-12T12:52:18.458Z,0.2
2018-08-12T12:54:18.232Z,0.1
2018-08-12T12:56:17.894Z,0.4
2018-08-12T12:58:17.727Z,0.4
2018-08-12T13:00:18.528Z,0.2
2018-08-12T13:02:18.318Z,0.4
2018-08-12T13:04:18.160Z,0.3
2018-08-12T13:06:17.776Z,0.6
2018-08-12T13:08:17.555Z,0.5
2018-08-12T13:10:17.823Z,0.2
2018-08-12T13:12:17.619Z,0.4
2018-08-12T13:14:18.401Z,0.5
2018-08-12T13:16:18.144Z,0.2
2018-08-12T13:18:18.047Z,0.3
2018-08-12T13:20:17.883Z,0.5
2018-08-12T13:22:17.663Z,0.5
2018-08-12T13:24:18.452Z,0.5
2018-08-12T13:26:17.755Z,0.2
2018-08-12T13:28:18.544Z,0.3
2018-08-12T13:30:18.546Z,0.3
2018-08-12T13:32:18.383Z,0.3
2018-08-12T13:34:18.182Z,0.4
2018-08-12T13:36:17.714Z,0.2
2018-08-12T13:38:18.541Z,0.3
2018-08-12T13:40:17.817Z,0.1
2018-08-12T13:42:17.609Z,0.3
2018-08-12T13:44:18.448Z,0.4
2018-08-12T13:46:18.042Z,0.3
2018-08-12T13:48:17.859Z,0.3
2018-08-12T13:50:17.669Z,0.2
2018-08-12T13:52:18.442Z,0.2
2018-08-12T13:54:18.227Z,0.1
2018-08-12T13:56:17.823Z,0.4
2018-08-12T13:58:17.629Z,0.2
2018-08-12T14:00:18.433Z,0.1
2018-08-12T14:02:18.235Z,0.5
2018-08-12T14:04:18.092Z,0.2
2018-08-12T14:06:17.738Z,0.2
2018-08-12T14:08:17.587Z,0.3
2018-08-12T14:10:17.860Z,0.5
2018-08-12T14:12:17.680Z,0.5
2018-08-12T14:14:18.489Z,0.3
2018-08-12T14:16:18.113Z,0.2
2018-08-12T14:18:18.013Z,0.3
2018-08-12T14:20:17.823Z,0.3
2018-08-12T14:22:17.624Z,0.4
2018-08-12T14:24:18.457Z,0.2
2018-08-12T14:26:17.560Z,0.1
2018-08-12T14:28:18.350Z,0.3
2018-08-12T14:30:18.156Z,0.2
2018-08-12T14:32:17.972Z,0.2
2018-08-12T14:34:17.791Z,0.2
2018-08-12T14:36:18.387Z,0.3
2018-08-12T14:38:18.177Z,0.3
2018-08-12T14:40:18.486Z,1.1
2018-08-12T14:42:18.342Z,0.6
2018-08-12T14:44:18.203Z,0.5
2018-08-12T14:46:17.796Z,0.4
2018-08-12T14:48:17.644Z,0.3
2018-08-12T14:50:18.470Z,0.3
2018-08-12T14:52:18.283Z,0.5
2018-08-12T14:54:18.134Z,0.1
2018-08-12T14:56:17.716Z,0.2
2018-08-12T14:58:18.515Z,0.4
2018-08-12T15:00:18.320Z,0.4
2018-08-12T15:02:18.145Z,0.3
2018-08-12T15:04:17.983Z,0.3
2018-08-12T15:06:18.582Z,0.3
2018-08-12T15:08:18.400Z,0.2
2018-08-12T15:10:17.734Z,0.2
2018-08-12T15:12:17.585Z,0.4
2018-08-12T15:14:18.392Z,0.3
2018-08-12T15:16:17.946Z,0.2
2018-08-12T15:18:17.838Z,0.2
2018-08-12T15:20:17.665Z,0.2
2018-08-12T15:22:18.524Z,0.1
2018-08-12T15:24:18.445Z,0.5
2018-08-12T15:26:18.041Z,0.3
2018-08-12T15:28:17.861Z,0.3
2018-08-12T15:30:17.682Z,0.4
2018-08-12T15:32:18.533Z,0.2
2018-08-12T15:34:18.345Z,0.4
2018-08-12T15:36:18.039Z,0.1
2018-08-12T15:38:18.075Z,0.3
2018-08-12T15:40:18.473Z,0.2
2018-08-12T15:42:18.329Z,0.3
2018-08-12T15:44:18.344Z,0.2
2018-08-12T15:46:18.541Z,0.3
2018-08-12T15:48:18.378Z,0.3
2018-08-12T15:50:18.230Z,0.3
2018-08-12T15:52:17.753Z,0.1
2018-08-12T15:54:17.588Z,0.6
2018-08-12T15:56:17.688Z,0.2
2018-08-12T15:58:18.564Z,0.4
2018-08-12T16:00:18.397Z,0.4
2018-08-12T16:02:18.221Z,0.3
2018-08-12T16:04:18.071Z,0.2
2018-08-12T16:06:18.161Z,0.2
2018-08-12T16:08:17.959Z,0.3
2018-08-12T16:10:18.376Z,0.3
2018-08-12T16:12:18.297Z,0.2
2018-08-12T16:14:18.141Z,0.2
2018-08-12T16:16:17.767Z,0.4
2018-08-12T16:18:17.728Z,0.2
2018-08-12T16:20:18.561Z,0.2
2018-08-12T16:22:18.437Z,0.4
2018-08-12T16:24:18.418Z,0.2
2018-08-12T16:26:18.183Z,0.2
2018-08-12T16:28:17.981Z,0.3
2018-08-12T16:30:17.788Z,0.2
2018-08-12T16:32:17.624Z,0.3
2018-08-12T16:34:18.419Z,0.2
2018-08-12T16:36:17.939Z,0.3
2018-08-12T16:38:17.780Z,0.2
2018-08-12T16:40:18.083Z,0.3
2018-08-12T16:42:17.953Z,0.3
2018-08-12T16:44:17.801Z,0.3
2018-08-12T16:46:18.348Z,0.3
2018-08-12T16:48:18.180Z,0.2
2018-08-12T16:50:18.000Z,0.2
2018-08-12T16:52:17.811Z,0.3
2018-08-12T16:54:17.589Z,0.5
2018-08-12T16:56:18.161Z,0.6
2018-08-12T16:58:17.987Z,0.2
2018-08-12T17:00:17.802Z,0.6
2018-08-12T17:02:17.602Z,1.3
2018-08-12T17:04:18.527Z,0.9
2018-08-12T17:06:18.454Z,0.5
2018-08-12T17:08:18.260Z,0.6
2018-08-12T17:10:18.579Z,0.5
2018-08-12T17:12:18.412Z,0.2
2018-08-12T17:14:18.237Z,0.2
2018-08-12T17:16:18.425Z,0.3
2018-08-12T17:18:18.333Z,0.5
2018-08-12T17:20:18.148Z,0.3
2018-08-12T17:22:18.030Z,0.4
2018-08-12T17:24:18.065Z,0.2
2018-08-12T17:26:18.258Z,0.2
2018-08-12T17:28:18.048Z,0.3
2018-08-12T17:30:17.855Z,0.4
2018-08-12T17:32:17.703Z,0.2
2018-08-12T17:34:18.513Z,0.4
2018-08-12T17:36:17.615Z,0.2
2018-08-12T17:38:18.411Z,0.2
2018-08-12T17:40:17.811Z,0.3
2018-08-12T17:42:17.645Z,0.6
2018-08-12T17:44:18.447Z,0.3
2018-08-12T17:46:18.049Z,0.4
2018-08-12T17:48:17.953Z,0.5
2018-08-12T17:50:18.015Z,0.3
2018-08-12T17:52:17.789Z,0.2
2018-08-12T17:54:17.704Z,0.5
2018-08-12T17:56:18.524Z,0.6
2018-08-12T17:58:18.325Z,0.5
2018-08-12T18:00:18.144Z,1.2
2018-08-12T18:02:17.966Z,1.4
2018-08-12T18:04:17.791Z,0.8
2018-08-12T18:06:18.381Z,0.7
2018-08-12T18:08:18.157Z,0.5
2018-08-12T18:10:18.481Z,0.5
2018-08-12T18:12:18.328Z,0.8
2018-08-12T18:14:18.177Z,0.6
2018-08-12T18:16:18.278Z,0.6
2018-08-12T18:18:18.207Z,0.6
2018-08-12T18:20:18.085Z,0.6
2018-08-12T18:22:17.932Z,0.6
2018-08-12T18:24:17.792Z,0.5
2018-08-12T18:26:18.395Z,0.6
2018-08-12T18:28:18.227Z,1
2018-08-12T18:30:18.033Z,0.3
2018-08-12T18:32:17.859Z,0.4
2018-08-12T18:34:17.698Z,0.6
2018-08-12T18:36:18.361Z,0.5
2018-08-12T18:38:18.207Z,0.9
2018-08-12T18:40:18.533Z,0.5
2018-08-12T18:42:18.351Z,0.8
2018-08-12T18:44:18.178Z,0.6
2018-08-12T18:46:18.463Z,0.7
2018-08-12T18:48:18.308Z,0.8
2018-08-12T18:50:18.122Z,0.9
2018-08-12T18:52:17.903Z,1.2
2018-08-12T18:54:17.703Z,0.9
2018-08-12T18:56:17.827Z,0.9
2018-08-12T18:58:17.642Z,1.4
2018-08-12T19:00:18.611Z,0.8
2018-08-12T19:02:18.407Z,0.4
2018-08-12T19:04:18.239Z,0.8
2018-08-12T19:06:17.870Z,1.6
2018-08-12T19:08:17.676Z,0.8
2018-08-12T19:10:17.949Z,0.7
2018-08-12T19:12:17.746Z,0.9
2018-08-12T19:14:18.533Z,0.7
2018-08-12T19:16:18.132Z,1.3
2018-08-12T19:18:17.998Z,0.6
2018-08-12T19:20:17.837Z,0.9
2018-08-12T19:22:17.652Z,1.2
2018-08-12T19:24:18.432Z,0.8
2018-08-12T19:26:18.053Z,0.9
2018-08-12T19:28:17.872Z,1.8
2018-08-12T19:30:17.675Z,1.7
2018-08-12T19:32:18.437Z,1.2
2018-08-12T19:34:18.233Z,1.3
2018-08-12T19:36:17.840Z,0.8
2018-08-12T19:38:17.619Z,1.2
2018-08-12T19:40:17.896Z,1.6
2018-08-12T19:42:17.707Z,0.8
2018-08-12T19:44:18.507Z,1.7
2018-08-12T19:46:18.098Z,1.6
2018-08-12T19:48:17.883Z,1.7
2018-08-12T19:50:17.659Z,1.8
2018-08-12T19:52:18.467Z,1.3
2018-08-12T19:54:18.248Z,2.1
2018-08-12T19:56:17.951Z,1.6
2018-08-12T19:58:17.745Z,1.2
2018-08-12T20:00:18.562Z,1.3
2018-08-12T20:02:18.354Z,1.8
2018-08-12T20:04:18.152Z,1.3
2018-08-12T20:06:17.724Z,1.3
2018-08-12T20:08:18.541Z,1.8
2018-08-12T20:10:17.830Z,1.2
2018-08-12T20:12:17.700Z,2
2018-08-12T20:14:17.797Z,1.8
2018-08-12T20:16:17.832Z,1.6
2018-08-12T20:18:17.715Z,1.6
2018-08-12T20:20:18.549Z,1.4
2018-08-12T20:22:18.399Z,1.3
2018-08-12T20:24:18.256Z,1.3
2018-08-12T20:26:17.753Z,1.6
2018-08-12T20:28:17.604Z,2.5
2018-08-12T20:30:18.452Z,1.5
2018-08-12T20:32:18.281Z,1.6
2018-08-12T20:34:18.068Z,1.7
2018-08-12T20:36:17.929Z,1.8
2018-08-12T20:38:17.735Z,1.2
2018-08-12T20:40:18.026Z,1.7
2018-08-12T20:42:17.821Z,1.4
2018-08-12T20:44:17.672Z,1.4
2018-08-12T20:46:18.318Z,1.8
2018-08-12T20:48:18.092Z,1.3
2018-08-12T20:50:17.879Z,1.1
2018-08-12T20:52:17.661Z,1.9
2018-08-12T20:54:18.437Z,1.6
2018-08-12T20:56:17.999Z,1.6
2018-08-12T20:58:17.769Z,1.6
2018-08-12T21:00:17.599Z,1.1
2018-08-12T21:02:18.366Z,1.4
2018-08-12T21:04:18.186Z,1.3
2018-08-12T21:06:17.744Z,1.4
2018-08-12T21:08:17.564Z,1.4
2018-08-12T21:10:17.859Z,1.5
2018-08-12T21:12:17.646Z,1.8
2018-08-12T21:14:18.430Z,1.4
2018-08-12T21:16:18.084Z,1.5
2018-08-12T21:18:18.030Z,1.2
2018-08-12T21:20:17.811Z,2
2018-08-12T21:22:17.622Z,1.6
2018-08-12T21:24:18.419Z,2
2018-08-12T21:26:17.961Z,1.6
2018-08-12T21:28:17.802Z,1.3
2018-08-12T21:30:17.595Z,2
2018-08-12T21:32:18.359Z,0.9
2018-08-12T21:34:18.174Z,1.5
2018-08-12T21:36:17.743Z,1.4
2018-08-12T21:38:18.521Z,1.5
2018-08-12T21:40:17.776Z,1.5
2018-08-12T21:42:17.595Z,1.3
2018-08-12T21:44:18.378Z,1.2
2018-08-12T21:46:17.968Z,1.3
2018-08-12T21:48:17.771Z,1.6
2018-08-12T21:50:17.549Z,1.7
2018-08-12T21:52:18.347Z,1.7
2018-08-12T21:54:18.114Z,1.7
2018-08-12T21:56:18.134Z,1.5
2018-08-12T21:58:17.955Z,1.6
2018-08-12T22:00:17.762Z,1.5
2018-08-12T22:02:17.541Z,1
2018-08-12T22:04:18.352Z,1.3
2018-08-12T22:06:17.874Z,1.8
2018-08-12T22:08:17.652Z,2
2018-08-12T22:10:17.940Z,1.8
2018-08-12T22:12:17.728Z,2
2018-08-12T22:14:18.543Z,1.2
2018-08-12T22:16:18.143Z,1.6
2018-08-12T22:18:17.981Z,1.9
2018-08-12T22:20:17.758Z,1.2
2018-08-12T22:22:17.538Z,1.9
2018-08-12T22:24:18.344Z,1.7
2018-08-12T22:26:17.907Z,1.5
2018-08-12T22:28:17.682Z,1.5
2018-08-12T22:30:18.463Z,1.1
2018-08-12T22:32:18.287Z,1.3
2018-08-12T22:34:18.059Z,1.7
2018-08-12T22:36:17.620Z,1.4
2018-08-12T22:38:18.409Z,1.8
2018-08-12T22:40:17.663Z,2.4
2018-08-12T22:42:18.429Z,1.9
2018-08-12T22:44:18.212Z,1.1
2018-08-12T22:46:17.842Z,1.3
2018-08-12T22:48:17.632Z,1.9
2018-08-12T22:50:18.420Z,1.5
2018-08-12T22:52:18.233Z,1.4
2018-08-12T22:54:18.025Z,1.4
2018-08-12T22:56:18.011Z,1.2
2018-08-12T22:58:17.785Z,1.3
2018-08-12T23:00:17.578Z,1.5
2018-08-12T23:02:18.330Z,1.6
2018-08-12T23:04:18.106Z,1.7
2018-08-12T23:06:17.754Z,1.3
2018-08-12T23:08:18.531Z,1.7
2018-08-12T23:10:17.848Z,1
2018-08-12T23:12:17.642Z,1.1
2018-08-12T23:14:18.424Z,1.9
2018-08-12T23:16:17.983Z,1.4
2018-08-12T23:18:17.841Z,2.1
2018-08-12T23:20:17.635Z,1.2
2018-08-12T23:22:19.409Z,1.6
2018-08-12T23:24:18.216Z,1.5
2018-08-12T23:26:17.714Z,1.3
2018-08-12T23:28:18.486Z,1.1
2018-08-12T23:30:18.346Z,1.8
2018-08-12T23:32:18.158Z,1.7
2018-08-12T23:34:17.950Z,1.5
2018-08-12T23:36:17.602Z,1.5
2018-08-12T23:38:18.359Z,1.3
2018-08-12T23:40:17.668Z,1.8
2018-08-12T23:42:19.414Z,1.5
2018-08-12T23:44:18.180Z,1.9
2018-08-12T23:46:17.696Z,1.2
2018-08-12T23:48:18.483Z,1.2
2018-08-12T23:50:18.252Z,1.7
2018-08-12T23:52:18.027Z,1.6
2018-08-12T23:54:17.802Z,0.8
2018-08-12T23:56:18.297Z,1.4
2018-08-12T23:58:18.077Z,1.3
